sensor_id;sensor_type;location;lat;lon;timestamp;pressure;altitude;pressure_sealevel;temperature;humidity
78309;BME280;67566;42.022;21.356;2023-05-10T00:01:42;98747.16;;;12.73;82.19
78309;BME280;67566;42.022;21.356;2023-05-10T00:04:08;98745.59;;;12.72;82.35
78309;BME280;67566;42.022;21.356;2023-05-10T00:06:33;98746.50;;;12.68;82.23
78309;BME280;67566;42.022;21.356;2023-05-10T00:08:59;98732.38;;;12.67;82.18
78309;BME280;67566;42.022;21.356;2023-05-10T00:11:24;98741.63;;;12.70;82.31
78309;BME280;67566;42.022;21.356;2023-05-10T00:13:50;98735.66;;;12.64;82.66
78309;BME280;67566;42.022;21.356;2023-05-10T00:16:15;98738.03;;;12.65;82.30
78309;BME280;67566;42.022;21.356;2023-05-10T00:18:41;98737.53;;;12.63;82.70
78309;BME280;67566;42.022;21.356;2023-05-10T00:21:06;98742.91;;;12.63;82.44
78309;BME280;67566;42.022;21.356;2023-05-10T00:23:32;98731.41;;;12.63;83.14
78309;BME280;67566;42.022;21.356;2023-05-10T00:25:57;98729.38;;;12.60;83.13
78309;BME280;67566;42.022;21.356;2023-05-10T00:28:23;98719.31;;;12.57;82.66
78309;BME280;67566;42.022;21.356;2023-05-10T00:30:48;98719.13;;;12.53;82.86
78309;BME280;67566;42.022;21.356;2023-05-10T00:33:14;98724.47;;;12.53;82.97
78309;BME280;67566;42.022;21.356;2023-05-10T00:35:39;98722.28;;;12.55;83.06
78309;BME280;67566;42.022;21.356;2023-05-10T00:38:05;98719.31;;;12.57;83.16
78309;BME280;67566;42.022;21.356;2023-05-10T00:40:31;98717.41;;;12.57;83.54
78309;BME280;67566;42.022;21.356;2023-05-10T00:42:57;98714.25;;;12.55;83.07
78309;BME280;67566;42.022;21.356;2023-05-10T00:45:23;98718.34;;;12.61;83.63
78309;BME280;67566;42.022;21.356;2023-05-10T00:47:50;98712.22;;;12.61;82.98
78309;BME280;67566;42.022;21.356;2023-05-10T00:50:20;98716.78;;;12.60;83.16
78309;BME280;67566;42.022;21.356;2023-05-10T00:52:46;98707.66;;;12.61;83.42
78309;BME280;67566;42.022;21.356;2023-05-10T00:55:11;98702.03;;;12.63;83.41
78309;BME280;67566;42.022;21.356;2023-05-10T00:57:38;98694.81;;;12.63;83.28
78309;BME280;67566;42.022;21.356;2023-05-10T01:00:04;98706.44;;;12.68;82.87
78309;BME280;67566;42.022;21.356;2023-05-10T01:02:30;98699.50;;;12.66;83.00
78309;BME280;67566;42.022;21.356;2023-05-10T01:04:55;98702.50;;;12.65;82.53
78309;BME280;67566;42.022;21.356;2023-05-10T01:07:21;98704.84;;;12.66;82.64
78309;BME280;67566;42.022;21.356;2023-05-10T01:09:46;98702.19;;;12.66;82.33
78309;BME280;67566;42.022;21.356;2023-05-10T01:12:12;98705.97;;;12.65;82.34
78309;BME280;67566;42.022;21.356;2023-05-10T01:14:38;98704.53;;;12.68;82.38
78309;BME280;67566;42.022;21.356;2023-05-10T01:17:04;98703.59;;;12.64;81.90
78309;BME280;67566;42.022;21.356;2023-05-10T01:19:34;98705.63;;;12.58;82.43
78309;BME280;67566;42.022;21.356;2023-05-10T01:28:13;98707.34;;;12.63;82.27
78309;BME280;67566;42.022;21.356;2023-05-10T01:31:31;98701.09;;;12.68;82.91
78309;BME280;67566;42.022;21.356;2023-05-10T01:34:25;98704.22;;;12.70;82.80
78309;BME280;67566;42.022;21.356;2023-05-10T01:36:59;98698.72;;;12.66;82.25
78309;BME280;67566;42.022;21.356;2023-05-10T01:42:10;98694.16;;;12.66;82.43
78309;BME280;67566;42.022;21.356;2023-05-10T01:45:00;98695.13;;;12.62;82.25
78309;BME280;67566;42.022;21.356;2023-05-10T01:47:54;98704.22;;;12.61;82.72
78309;BME280;67566;42.022;21.356;2023-05-10T01:50:25;98692.91;;;12.55;83.01
78309;BME280;67566;42.022;21.356;2023-05-10T01:52:55;98694.16;;;12.58;83.02
78309;BME280;67566;42.022;21.356;2023-05-10T01:55:25;98692.28;;;12.58;83.19
78309;BME280;67566;42.022;21.356;2023-05-10T01:57:57;98688.81;;;12.58;82.78
78309;BME280;67566;42.022;21.356;2023-05-10T02:00:24;98688.19;;;12.61;83.28
78309;BME280;67566;42.022;21.356;2023-05-10T02:02:50;98687.88;;;12.62;83.08
78309;BME280;67566;42.022;21.356;2023-05-10T02:05:18;98694.00;;;12.63;83.31
78309;BME280;67566;42.022;21.356;2023-05-10T02:07:45;98691.81;;;12.65;83.27
78309;BME280;67566;42.022;21.356;2023-05-10T02:10:13;98692.59;;;12.65;82.99
78309;BME280;67566;42.022;21.356;2023-05-10T02:12:42;98686.81;;;12.63;83.08
78309;BME280;67566;42.022;21.356;2023-05-10T02:15:10;98685.22;;;12.62;83.29
78309;BME280;67566;42.022;21.356;2023-05-10T02:17:37;98686.94;;;12.58;83.69
78309;BME280;67566;42.022;21.356;2023-05-10T02:20:06;98683.16;;;12.59;83.56
78309;BME280;67566;42.022;21.356;2023-05-10T02:22:32;98683.97;;;12.60;84.02
78309;BME280;67566;42.022;21.356;2023-05-10T02:25:00;98676.88;;;12.64;83.79
78309;BME280;67566;42.022;21.356;2023-05-10T02:27:27;98687.25;;;12.65;83.43
78309;BME280;67566;42.022;21.356;2023-05-10T02:29:54;98675.47;;;12.66;83.24
78309;BME280;67566;42.022;21.356;2023-05-10T02:32:22;98684.59;;;12.65;83.29
78309;BME280;67566;42.022;21.356;2023-05-10T02:34:49;98681.94;;;12.65;83.27
78309;BME280;67566;42.022;21.356;2023-05-10T02:37:18;98676.59;;;12.65;83.66
78309;BME280;67566;42.022;21.356;2023-05-10T02:39:48;98680.47;;;12.59;83.53
78309;BME280;67566;42.022;21.356;2023-05-10T02:42:17;98678.13;;;12.58;83.18
78309;BME280;67566;42.022;21.356;2023-05-10T02:44:45;98672.47;;;12.59;82.82
78309;BME280;67566;42.022;21.356;2023-05-10T02:47:13;98674.53;;;12.62;82.91
78309;BME280;67566;42.022;21.356;2023-05-10T02:49:38;98676.28;;;12.67;83.02
78309;BME280;67566;42.022;21.356;2023-05-10T02:52:05;98675.97;;;12.69;83.12
78309;BME280;67566;42.022;21.356;2023-05-10T02:54:41;98671.88;;;12.71;82.29
78309;BME280;67566;42.022;21.356;2023-05-10T02:57:12;98678.13;;;12.66;82.37
78309;BME280;67566;42.022;21.356;2023-05-10T02:59:40;98675.00;;;12.64;82.02
78309;BME280;67566;42.022;21.356;2023-05-10T03:02:14;98677.97;;;12.63;81.96
78309;BME280;67566;42.022;21.356;2023-05-10T03:04:39;98681.59;;;12.58;81.89
78309;BME280;67566;42.022;21.356;2023-05-10T03:07:05;98670.59;;;12.51;82.13
78309;BME280;67566;42.022;21.356;2023-05-10T03:09:31;98674.03;;;12.52;82.31
78309;BME280;67566;42.022;21.356;2023-05-10T03:12:18;98679.38;;;12.52;82.08
78309;BME280;67566;42.022;21.356;2023-05-10T03:17:47;98680.47;;;12.51;82.24
78309;BME280;67566;42.022;21.356;2023-05-10T03:20:24;98683.94;;;12.51;82.59
78309;BME280;67566;42.022;21.356;2023-05-10T03:22:55;98687.41;;;12.52;82.96
78309;BME280;67566;42.022;21.356;2023-05-10T03:25:26;98677.31;;;12.49;82.42
78309;BME280;67566;42.022;21.356;2023-05-10T03:27:52;98686.75;;;12.46;82.26
78309;BME280;67566;42.022;21.356;2023-05-10T03:30:18;98688.16;;;12.43;82.60
78309;BME280;67566;42.022;21.356;2023-05-10T03:32:44;98681.06;;;12.39;83.13
78309;BME280;67566;42.022;21.356;2023-05-10T03:35:11;98683.91;;;12.34;82.96
78309;BME280;67566;42.022;21.356;2023-05-10T03:37:38;98686.38;;;12.30;83.20
78309;BME280;67566;42.022;21.356;2023-05-10T03:40:04;98686.72;;;12.28;83.22
78309;BME280;67566;42.022;21.356;2023-05-10T03:42:30;98687.78;;;12.27;83.17
78309;BME280;67566;42.022;21.356;2023-05-10T03:44:55;98691.72;;;12.30;83.15
78309;BME280;67566;42.022;21.356;2023-05-10T03:47:21;98688.13;;;12.35;83.17
78309;BME280;67566;42.022;21.356;2023-05-10T03:49:46;98690.16;;;12.29;83.01
78309;BME280;67566;42.022;21.356;2023-05-10T03:52:12;98684.66;;;12.25;82.82
78309;BME280;67566;42.022;21.356;2023-05-10T03:54:37;98681.03;;;12.21;83.32
78309;BME280;67566;42.022;21.356;2023-05-10T03:57:03;98689.34;;;12.20;83.38
78309;BME280;67566;42.022;21.356;2023-05-10T03:59:29;98693.72;;;12.16;83.18
78309;BME280;67566;42.022;21.356;2023-05-10T04:01:55;98686.50;;;12.16;83.52
78309;BME280;67566;42.022;21.356;2023-05-10T04:04:20;98684.28;;;12.09;83.23
78309;BME280;67566;42.022;21.356;2023-05-10T04:06:47;98696.16;;;12.03;83.53
78309;BME280;67566;42.022;21.356;2023-05-10T04:09:12;98699.66;;;12.04;83.87
78309;BME280;67566;42.022;21.356;2023-05-10T04:11:38;98699.66;;;12.04;84.12
78309;BME280;67566;42.022;21.356;2023-05-10T04:14:04;98703.41;;;12.03;84.01
78309;BME280;67566;42.022;21.356;2023-05-10T04:16:29;98701.03;;;12.01;84.14
78309;BME280;67566;42.022;21.356;2023-05-10T04:18:55;98704.97;;;12.04;84.67
78309;BME280;67566;42.022;21.356;2023-05-10T04:21:20;98703.09;;;12.04;84.61
78309;BME280;67566;42.022;21.356;2023-05-10T04:23:46;98709.22;;;12.05;84.49
78309;BME280;67566;42.022;21.356;2023-05-10T04:26:12;98711.88;;;12.05;84.21
78309;BME280;67566;42.022;21.356;2023-05-10T04:28:38;98709.22;;;12.05;84.28
78309;BME280;67566;42.022;21.356;2023-05-10T04:31:05;98720.34;;;12.07;84.46
78309;BME280;67566;42.022;21.356;2023-05-10T04:33:30;98710.50;;;12.07;84.73
78309;BME280;67566;42.022;21.356;2023-05-10T04:35:56;98719.75;;;12.10;84.53
78309;BME280;67566;42.022;21.356;2023-05-10T04:38:22;98721.94;;;12.08;84.73
78309;BME280;67566;42.022;21.356;2023-05-10T04:40:47;98722.91;;;12.12;84.78
78309;BME280;67566;42.022;21.356;2023-05-10T04:43:13;98718.03;;;12.14;84.78
78309;BME280;67566;42.022;21.356;2023-05-10T04:45:38;98711.75;;;12.10;84.46
78309;BME280;67566;42.022;21.356;2023-05-10T04:48:04;98718.66;;;12.11;83.79
78309;BME280;67566;42.022;21.356;2023-05-10T04:50:29;98720.34;;;12.07;84.34
78309;BME280;67566;42.022;21.356;2023-05-10T04:52:55;98709.06;;;12.10;84.62
78309;BME280;67566;42.022;21.356;2023-05-10T04:55:20;98715.50;;;12.09;83.99
78309;BME280;67566;42.022;21.356;2023-05-10T04:57:46;98718.50;;;12.07;84.96
78309;BME280;67566;42.022;21.356;2023-05-10T05:00:12;98713.16;;;12.07;84.54
78309;BME280;67566;42.022;21.356;2023-05-10T05:02:37;98721.94;;;12.08;84.08
78309;BME280;67566;42.022;21.356;2023-05-10T05:05:03;98716.91;;;12.06;83.77
78309;BME280;67566;42.022;21.356;2023-05-10T05:07:28;98718.31;;;12.04;84.10
78309;BME280;67566;42.022;21.356;2023-05-10T05:09:55;98724.44;;;12.04;83.57
78309;BME280;67566;42.022;21.356;2023-05-10T05:12:21;98718.13;;;12.00;84.12
78309;BME280;67566;42.022;21.356;2023-05-10T05:14:46;98720.78;;;12.00;84.45
78309;BME280;67566;42.022;21.356;2023-05-10T05:17:12;98726.94;;;12.01;84.17
78309;BME280;67566;42.022;21.356;2023-05-10T05:19:37;98721.91;;;11.99;84.27
78309;BME280;67566;42.022;21.356;2023-05-10T05:22:03;98721.13;;;11.99;84.71
78309;BME280;67566;42.022;21.356;2023-05-10T05:24:28;98719.06;;;11.96;84.60
78309;BME280;67566;42.022;21.356;2023-05-10T05:26:54;98718.28;;;11.95;84.87
78309;BME280;67566;42.022;21.356;2023-05-10T05:29:19;98723.91;;;11.94;85.36
78309;BME280;67566;42.022;21.356;2023-05-10T05:31:45;98726.13;;;12.00;84.45
78309;BME280;67566;42.022;21.356;2023-05-10T05:34:10;98728.03;;;12.00;84.53
78309;BME280;67566;42.022;21.356;2023-05-10T05:36:36;98728.19;;;12.03;84.83
78309;BME280;67566;42.022;21.356;2023-05-10T05:39:03;98732.31;;;12.09;84.85
78309;BME280;67566;42.022;21.356;2023-05-10T05:41:29;98727.16;;;12.13;84.68
78309;BME280;67566;42.022;21.356;2023-05-10T05:43:54;98726.22;;;12.18;84.30
78309;BME280;67566;42.022;21.356;2023-05-10T05:46:20;98725.91;;;12.19;84.71
78309;BME280;67566;42.022;21.356;2023-05-10T05:48:45;98721.38;;;12.20;84.76
78309;BME280;67566;42.022;21.356;2023-05-10T05:51:11;98725.91;;;12.19;84.81
78309;BME280;67566;42.022;21.356;2023-05-10T05:53:36;98722.94;;;12.21;84.87
78309;BME280;67566;42.022;21.356;2023-05-10T05:56:02;98729.38;;;12.20;84.27
78309;BME280;67566;42.022;21.356;2023-05-10T05:58:28;98721.50;;;12.15;84.75
78309;BME280;67566;42.022;21.356;2023-05-10T06:00:54;98720.88;;;12.18;84.80
78309;BME280;67566;42.022;21.356;2023-05-10T06:03:19;98727.66;;;12.24;84.67
78309;BME280;67566;42.022;21.356;2023-05-10T06:05:45;98723.09;;;12.24;84.80
78309;BME280;67566;42.022;21.356;2023-05-10T06:08:10;98719.34;;;12.25;84.64
78309;BME280;67566;42.022;21.356;2023-05-10T06:10:36;98730.97;;;12.30;84.02
78309;BME280;67566;42.022;21.356;2023-05-10T06:13:02;98732.13;;;12.37;84.30
78309;BME280;67566;42.022;21.356;2023-05-10T06:15:28;98732.28;;;12.41;84.12
78309;BME280;67566;42.022;21.356;2023-05-10T06:17:53;98734.31;;;12.44;84.27
78309;BME280;67566;42.022;21.356;2023-05-10T06:20:19;98733.38;;;12.40;84.40
78309;BME280;67566;42.022;21.356;2023-05-10T06:22:44;98735.75;;;12.41;84.08
78309;BME280;67566;42.022;21.356;2023-05-10T06:25:10;98735.44;;;12.43;83.62
78309;BME280;67566;42.022;21.356;2023-05-10T06:27:36;98733.53;;;12.43;83.49
78309;BME280;67566;42.022;21.356;2023-05-10T06:30:02;98726.97;;;12.50;83.63
78309;BME280;67566;42.022;21.356;2023-05-10T06:32:28;98731.06;;;12.56;83.35
78309;BME280;67566;42.022;21.356;2023-05-10T06:34:53;98727.63;;;12.55;83.04
78309;BME280;67566;42.022;21.356;2023-05-10T06:37:19;98732.19;;;12.55;83.25
78309;BME280;67566;42.022;21.356;2023-05-10T06:39:44;98732.34;;;12.58;83.40
78309;BME280;67566;42.022;21.356;2023-05-10T06:42:10;98735.81;;;12.59;83.10
78309;BME280;67566;42.022;21.356;2023-05-10T06:44:35;98738.63;;;12.62;83.19
78309;BME280;67566;42.022;21.356;2023-05-10T06:47:01;98743.50;;;12.60;83.62
78309;BME280;67566;42.022;21.356;2023-05-10T06:49:26;98748.25;;;12.63;82.69
78309;BME280;67566;42.022;21.356;2023-05-10T06:51:52;98748.09;;;12.69;82.57
78309;BME280;67566;42.022;21.356;2023-05-10T06:54:17;98744.00;;;12.71;82.88
78309;BME280;67566;42.022;21.356;2023-05-10T06:56:43;98752.00;;;12.71;82.24
78309;BME280;67566;42.022;21.356;2023-05-10T06:59:08;98750.75;;;12.69;82.76
78309;BME280;67566;42.022;21.356;2023-05-10T07:01:34;98750.25;;;12.66;82.69
78309;BME280;67566;42.022;21.356;2023-05-10T07:04:00;98747.44;;;12.72;82.79
78309;BME280;67566;42.022;21.356;2023-05-10T07:06:25;98750.28;;;12.75;82.38
78309;BME280;67566;42.022;21.356;2023-05-10T07:08:51;98746.69;;;12.80;82.31
78309;BME280;67566;42.022;21.356;2023-05-10T07:11:16;98750.00;;;12.85;82.13
78309;BME280;67566;42.022;21.356;2023-05-10T07:13:45;98756.63;;;12.88;82.49
78309;BME280;67566;42.022;21.356;2023-05-10T07:16:11;98747.31;;;12.85;82.05
78309;BME280;67566;42.022;21.356;2023-05-10T07:18:47;98751.13;;;12.93;81.53
78309;BME280;67566;42.022;21.356;2023-05-10T07:21:18;98756.19;;;13.03;81.71
78309;BME280;67566;42.022;21.356;2023-05-10T07:23:44;98756.00;;;13.09;81.54
78309;BME280;67566;42.022;21.356;2023-05-10T07:26:09;98750.84;;;13.12;81.47
78309;BME280;67566;42.022;21.356;2023-05-10T07:28:36;98753.19;;;13.14;80.74
78309;BME280;67566;42.022;21.356;2023-05-10T07:31:02;98754.94;;;13.18;79.77
78309;BME280;67566;42.022;21.356;2023-05-10T07:33:34;98756.19;;;13.21;79.90
78309;BME280;67566;42.022;21.356;2023-05-10T07:36:08;98750.66;;;13.17;80.05
78309;BME280;67566;42.022;21.356;2023-05-10T07:38:36;98755.69;;;13.19;80.52
78309;BME280;67566;42.022;21.356;2023-05-10T07:41:03;98756.97;;;13.21;80.16
78309;BME280;67566;42.022;21.356;2023-05-10T07:43:29;98757.91;;;13.26;80.04
78309;BME280;67566;42.022;21.356;2023-05-10T07:45:55;98764.84;;;13.27;79.75
78309;BME280;67566;42.022;21.356;2023-05-10T07:48:46;98766.72;;;13.26;79.73
78309;BME280;67566;42.022;21.356;2023-05-10T07:51:11;98773.19;;;13.25;79.61
78309;BME280;67566;42.022;21.356;2023-05-10T07:53:37;98775.22;;;13.28;79.24
78309;BME280;67566;42.022;21.356;2023-05-10T07:56:29;98767.22;;;13.28;79.24
78309;BME280;67566;42.022;21.356;2023-05-10T07:59:00;98771.13;;;13.31;79.05
78309;BME280;67566;42.022;21.356;2023-05-10T08:01:26;98770.22;;;13.35;79.30
78309;BME280;67566;42.022;21.356;2023-05-10T08:03:54;98767.69;;;13.30;78.73
78309;BME280;67566;42.022;21.356;2023-05-10T08:06:20;98776.66;;;13.34;78.61
78309;BME280;67566;42.022;21.356;2023-05-10T08:08:49;98771.16;;;13.39;78.60
78309;BME280;67566;42.022;21.356;2023-05-10T08:11:19;98773.22;;;13.43;78.08
78309;BME280;67566;42.022;21.356;2023-05-10T08:13:46;98774.78;;;13.44;78.60
78309;BME280;67566;42.022;21.356;2023-05-10T08:16:11;98773.06;;;13.48;77.73
78309;BME280;67566;42.022;21.356;2023-05-10T08:18:37;98781.88;;;13.48;77.58
78309;BME280;67566;42.022;21.356;2023-05-10T08:21:03;98779.50;;;13.47;78.01
78309;BME280;67566;42.022;21.356;2023-05-10T08:23:29;98784.84;;;13.47;78.02
78309;BME280;67566;42.022;21.356;2023-05-10T08:25:55;98786.13;;;13.49;78.24
78309;BME280;67566;42.022;21.356;2023-05-10T08:28:20;98779.34;;;13.43;77.75
78309;BME280;67566;42.022;21.356;2023-05-10T08:30:45;98779.66;;;13.41;77.47
78309;BME280;67566;42.022;21.356;2023-05-10T08:33:11;98784.38;;;13.45;77.12
78309;BME280;67566;42.022;21.356;2023-05-10T08:35:36;98790.03;;;13.43;76.99
78309;BME280;67566;42.022;21.356;2023-05-10T08:38:02;98788.16;;;13.44;76.94
78309;BME280;67566;42.022;21.356;2023-05-10T08:40:28;98787.22;;;13.48;77.56
78309;BME280;67566;42.022;21.356;2023-05-10T08:42:58;98788.00;;;13.49;76.72
78309;BME280;67566;42.022;21.356;2023-05-10T08:45:25;98789.13;;;13.48;77.04
78309;BME280;67566;42.022;21.356;2023-05-10T08:47:53;98791.00;;;13.47;77.20
78309;BME280;67566;42.022;21.356;2023-05-10T08:50:22;98793.19;;;13.54;77.00
78309;BME280;67566;42.022;21.356;2023-05-10T08:52:52;98787.84;;;13.54;76.98
78309;BME280;67566;42.022;21.356;2023-05-10T08:55:20;98794.16;;;13.58;77.17
78309;BME280;67566;42.022;21.356;2023-05-10T08:57:48;98792.72;;;13.52;76.48
78309;BME280;67566;42.022;21.356;2023-05-10T09:00:14;98788.16;;;13.52;76.37
78309;BME280;67566;42.022;21.356;2023-05-10T09:02:41;98784.06;;;13.55;77.09
78309;BME280;67566;42.022;21.356;2023-05-10T09:05:08;98787.69;;;13.59;76.73
78309;BME280;67566;42.022;21.356;2023-05-10T09:07:35;98789.59;;;13.58;76.81
78309;BME280;67566;42.022;21.356;2023-05-10T09:10:02;98795.25;;;13.57;76.45
78309;BME280;67566;42.022;21.356;2023-05-10T09:12:28;98784.22;;;13.58;75.90
78309;BME280;67566;42.022;21.356;2023-05-10T09:14:54;98793.34;;;13.57;76.13
78309;BME280;67566;42.022;21.356;2023-05-10T09:17:22;98793.84;;;13.59;76.67
78309;BME280;67566;42.022;21.356;2023-05-10T09:19:48;98785.47;;;13.61;75.93
78309;BME280;67566;42.022;21.356;2023-05-10T09:22:14;98782.63;;;13.66;76.01
78309;BME280;67566;42.022;21.356;2023-05-10T09:24:39;98785.00;;;13.68;75.70
78309;BME280;67566;42.022;21.356;2023-05-10T09:27:10;98789.25;;;13.69;75.27
78309;BME280;67566;42.022;21.356;2023-05-10T09:29:42;98786.28;;;13.70;75.42
78309;BME280;67566;42.022;21.356;2023-05-10T09:32:08;98783.59;;;13.70;75.06
78309;BME280;67566;42.022;21.356;2023-05-10T09:34:33;98788.16;;;13.70;74.92
78309;BME280;67566;42.022;21.356;2023-05-10T09:37:02;98778.09;;;13.67;75.00
78309;BME280;67566;42.022;21.356;2023-05-10T09:39:36;98784.69;;;13.60;75.43
78309;BME280;67566;42.022;21.356;2023-05-10T09:42:07;98785.97;;;13.63;75.68
78309;BME280;67566;42.022;21.356;2023-05-10T09:44:34;98781.56;;;13.67;75.45
78309;BME280;67566;42.022;21.356;2023-05-10T09:47:03;98782.47;;;13.71;75.48
78309;BME280;67566;42.022;21.356;2023-05-10T09:49:29;98781.56;;;13.67;75.46
78309;BME280;67566;42.022;21.356;2023-05-10T09:52:07;98783.13;;;13.68;75.10
78309;BME280;67566;42.022;21.356;2023-05-10T09:54:34;98777.94;;;13.72;75.72
78309;BME280;67566;42.022;21.356;2023-05-10T09:57:00;98780.91;;;13.79;75.32
78309;BME280;67566;42.022;21.356;2023-05-10T09:59:27;98782.00;;;13.87;74.82
78309;BME280;67566;42.022;21.356;2023-05-10T10:01:57;98776.47;;;13.92;74.08
78309;BME280;67566;42.022;21.356;2023-05-10T10:04:22;98771.28;;;13.95;75.06
78309;BME280;67566;42.022;21.356;2023-05-10T10:06:59;98771.09;;;14.01;74.98
78309;BME280;67566;42.022;21.356;2023-05-10T10:09:26;98763.69;;;14.06;74.12
78309;BME280;67566;42.022;21.356;2023-05-10T10:11:52;98767.78;;;14.12;73.77
78309;BME280;67566;42.022;21.356;2023-05-10T10:14:19;98767.31;;;14.10;73.92
78309;BME280;67566;42.022;21.356;2023-05-10T10:16:45;98764.94;;;14.18;73.04
78309;BME280;67566;42.022;21.356;2023-05-10T10:19:11;98764.91;;;14.26;74.32
78309;BME280;67566;42.022;21.356;2023-05-10T10:21:37;98771.00;;;14.35;73.71
78309;BME280;67566;42.022;21.356;2023-05-10T10:24:03;98764.03;;;14.43;72.93
78309;BME280;67566;42.022;21.356;2023-05-10T10:26:32;98760.25;;;14.44;72.33
78309;BME280;67566;42.022;21.356;2023-05-10T10:31:45;98765.72;;;14.65;72.90
78309;BME280;67566;42.022;21.356;2023-05-10T10:34:22;98756.06;;;14.73;72.27
78309;BME280;67566;42.022;21.356;2023-05-10T10:36:50;98756.34;;;14.80;71.82
78309;BME280;67566;42.022;21.356;2023-05-10T10:39:15;98760.25;;;14.83;71.27
78309;BME280;67566;42.022;21.356;2023-05-10T10:41:55;98763.38;;;14.85;71.08
78309;BME280;67566;42.022;21.356;2023-05-10T10:52:27;98768.44;;;14.86;71.26
78309;BME280;67566;42.022;21.356;2023-05-10T10:57:45;98764.84;;;14.82;72.42
78309;BME280;67566;42.022;21.356;2023-05-10T11:05:34;98762.78;;;14.79;71.89
78309;BME280;67566;42.022;21.356;2023-05-10T11:08:28;98763.25;;;14.81;72.26
78309;BME280;67566;42.022;21.356;2023-05-10T11:13:33;98764.44;;;14.71;71.95
78309;BME280;67566;42.022;21.356;2023-05-10T11:16:13;98765.53;;;14.70;71.41
78309;BME280;67566;42.022;21.356;2023-05-10T11:18:39;98758.94;;;14.68;72.45
78309;BME280;67566;42.022;21.356;2023-05-10T11:21:05;98763.66;;;14.62;72.67
78309;BME280;67566;42.022;21.356;2023-05-10T11:23:32;98763.22;;;14.60;72.68
78309;BME280;67566;42.022;21.356;2023-05-10T11:25:59;98763.53;;;14.59;72.55
78309;BME280;67566;42.022;21.356;2023-05-10T11:28:26;98763.66;;;14.62;72.69
78309;BME280;67566;42.022;21.356;2023-05-10T11:30:52;98772.19;;;14.64;72.31
78309;BME280;67566;42.022;21.356;2023-05-10T11:33:18;98762.56;;;14.63;72.48
78309;BME280;67566;42.022;21.356;2023-05-10T11:35:44;98757.22;;;14.63;72.86
78309;BME280;67566;42.022;21.356;2023-05-10T11:38:11;98771.38;;;14.64;72.37
78309;BME280;67566;42.022;21.356;2023-05-10T11:40:38;98767.75;;;14.68;72.52
78309;BME280;67566;42.022;21.356;2023-05-10T11:43:04;98757.94;;;14.72;71.95
78309;BME280;67566;42.022;21.356;2023-05-10T11:45:33;98754.94;;;14.74;71.91
78309;BME280;67566;42.022;21.356;2023-05-10T11:47:59;98763.13;;;14.78;71.11
78309;BME280;67566;42.022;21.356;2023-05-10T11:50:25;98755.41;;;14.76;71.05
78309;BME280;67566;42.022;21.356;2023-05-10T11:52:55;98754.13;;;14.82;71.02
78309;BME280;67566;42.022;21.356;2023-05-10T11:55:21;98757.56;;;14.83;71.50
78309;BME280;67566;42.022;21.356;2023-05-10T11:57:46;98755.03;;;14.86;71.53
78309;BME280;67566;42.022;21.356;2023-05-10T12:00:13;98758.97;;;14.89;71.40
78309;BME280;67566;42.022;21.356;2023-05-10T12:02:42;98746.66;;;14.88;71.06
78309;BME280;67566;42.022;21.356;2023-05-10T12:05:09;98753.41;;;14.94;71.23
78309;BME280;67566;42.022;21.356;2023-05-10T12:07:35;98746.75;;;15.00;70.95
78309;BME280;67566;42.022;21.356;2023-05-10T12:12:46;98750.56;;;14.99;70.79
78309;BME280;67566;42.022;21.356;2023-05-10T12:15:24;98756.50;;;15.05;70.66
78309;BME280;67566;42.022;21.356;2023-05-10T12:17:50;98745.19;;;14.99;69.47
78309;BME280;67566;42.022;21.356;2023-05-10T12:20:20;98744.06;;;15.00;69.13
78309;BME280;67566;42.022;21.356;2023-05-10T12:22:49;98744.00;;;15.09;69.87
78309;BME280;67566;42.022;21.356;2023-05-10T12:25:15;98735.44;;;15.16;68.80
78309;BME280;67566;42.022;21.356;2023-05-10T12:27:48;98733.78;;;15.23;68.59
78309;BME280;67566;42.022;21.356;2023-05-10T12:30:39;98730.84;;;15.37;68.21
78309;BME280;67566;42.022;21.356;2023-05-10T12:33:13;98732.69;;;15.45;68.19
78309;BME280;67566;42.022;21.356;2023-05-10T12:35:51;98729.47;;;15.52;66.63
78309;BME280;67566;42.022;21.356;2023-05-10T12:38:45;98725.44;;;15.58;65.68
78309;BME280;67566;42.022;21.356;2023-05-10T12:41:16;98724.13;;;15.64;65.77
78309;BME280;67566;42.022;21.356;2023-05-10T12:43:42;98726.63;;;15.70;65.05
78309;BME280;67566;42.022;21.356;2023-05-10T12:46:13;98722.47;;;15.72;64.99
78309;BME280;67566;42.022;21.356;2023-05-10T12:48:41;98717.56;;;15.74;65.95
78309;BME280;67566;42.022;21.356;2023-05-10T12:51:07;98711.22;;;15.79;65.87
78309;BME280;67566;42.022;21.356;2023-05-10T12:53:38;98713.84;;;15.66;65.07
78309;BME280;67566;42.022;21.356;2023-05-10T12:56:04;98705.75;;;15.75;65.42
78309;BME280;67566;42.022;21.356;2023-05-10T12:58:30;98712.13;;;15.83;65.43
78309;BME280;67566;42.022;21.356;2023-05-10T13:00:58;98713.03;;;15.87;64.42
78309;BME280;67566;42.022;21.356;2023-05-10T13:03:23;98707.00;;;15.90;64.56
78309;BME280;67566;42.022;21.356;2023-05-10T13:05:49;98707.38;;;16.01;64.65
78309;BME280;67566;42.022;21.356;2023-05-10T13:08:15;98711.06;;;16.09;64.53
78309;BME280;67566;42.022;21.356;2023-05-10T13:10:40;98690.47;;;16.13;64.83
78309;BME280;67566;42.022;21.356;2023-05-10T13:13:06;98697.84;;;16.16;63.80
78309;BME280;67566;42.022;21.356;2023-05-10T13:15:32;98691.59;;;16.12;64.32
78309;BME280;67566;42.022;21.356;2023-05-10T13:17:58;98693.38;;;16.08;63.84
78309;BME280;67566;42.022;21.356;2023-05-10T13:20:25;98688.22;;;16.02;63.67
78309;BME280;67566;42.022;21.356;2023-05-10T13:22:50;98693.50;;;16.11;63.86
78309;BME280;67566;42.022;21.356;2023-05-10T13:25:16;98681.63;;;16.12;64.13
78309;BME280;67566;42.022;21.356;2023-05-10T13:27:42;98690.03;;;16.23;64.15
78309;BME280;67566;42.022;21.356;2023-05-10T13:30:08;98673.34;;;16.30;63.62